Weather at Davison Army Air Field

Public forecast

Using degrees Fahrenheit for public forecast. Weather courtesy of forecast.io.

Current aviation weather report (METAR) for Davison Army Air Field

2024/06/19 06:55 (retrieved 9 minutes ago)

KDAA 190655Z AUTO 00000KT 10SM CLR 20/19 A3027 RMK AO2 SLP253 T02030186

Aviation forecast (TAF) for Davison Army Air Field

Forecast is more than 6 hours old.

2024/06/18 20:27 (retrieved 11 hours ago)

TAF TAF KDAA 182000Z 1820/2002 15009KT 9999 FEW040 QNH3017INS TX33/1820Z TN20/1908Z LAST NO AMDS AFT 1901 NEXT 2012